Redbank, Texas
Current Conditions -  °F | °C
As of 6:53 PM on Friday 24 Oct 2014 (Local Time) from KTXK Reporting Station
Clear Clear  
Wind Chill: 71°   Ceiling: Unl
Heat Index: 71°   Visibility: 10mi
Dew Point: 59°   Wind: 5mph
Humidity: 66%   Direction: 190°S
Pressure: 30.1"   Gusts: NA
Location:  33.474°N, 94.2882°W
Report Text: KTXK 242353Z 19004KT 10SM CLR 22/15 A3010 RMK AO2 SLP190 T02170150 10250 20217 57001
Loading
Personal Weather Stations






























Interactive Weather Map
Tropical Storm Tracking
New forecast layout! Learn more

10-Day Weather Forecast

Advertisements
Track Severe Weather on mobile